Time;durP1;ratioP1;P1;durP2;ratioP2;P2;SDS_P1;SDS_P2;PMS_P1;PMS_P2;Temp;Humidity;BMP_temperature;BMP_pressure;BME280_temperature;BME280_humidity;BME280_pressure;Samples;Min_cycle;Max_cycle;Signal;HPM_P1;HPM_P2
2023/02/25 00:01:23;;;;;;;;;;;;;;;11.74;52.89;98331.34;4995667;28;20365;-67
2023/02/25 00:03:50;;;;;;;;;;;;;;;11.71;53.14;98322.94;4994997;28;19933;-68
2023/02/25 00:06:15;;;;;;;;;;;;;;;11.69;52.93;98323.09;4978419;28;20266;-67
2023/02/25 00:08:44;;;;;;;;;;;;;;;11.67;52.89;98325.03;4977362;28;19953;-67
2023/02/25 00:11:10;;;;;;;;;;;;;;;11.64;53.13;98327.91;4961727;28;20278;-68
2023/02/25 00:13:35;;;;;;;;;;;;;;;11.63;52.79;98331.47;4977686;28;19925;-68
2023/02/25 00:16:04;;;;;;;;;;;;;;;11.62;53.22;98324.56;4977553;28;19972;-67
2023/02/25 00:18:29;;;;;;;;;;;;;;;11.61;53.13;98319.47;4977663;28;19922;-67
2023/02/25 00:20:55;;;;;;;;;;;;;;;11.60;53.23;98326.50;4977843;28;19918;-67
2023/02/25 00:23:20;;;;;;;;;;;;;;;11.57;52.94;98325.00;4961495;28;20386;-67
2023/02/25 00:25:46;;;;;;;;;;;;;;;11.59;53.00;98324.84;4977138;28;20012;-67
2023/02/25 00:28:11;;;;;;;;;;;;;;;11.58;53.15;98323.19;4977017;28;19918;-67
2023/02/25 00:30:37;;;;;;;;;;;;;;;11.57;53.05;98314.53;4977258;28;19977;-67
2023/02/25 00:33:02;;;;;;;;;;;;;;;11.54;52.98;98322.66;4995009;28;19925;-68
2023/02/25 00:35:28;;;;;;;;;;;;;;;11.52;53.39;98315.88;4977500;28;20293;-67
2023/02/25 00:37:53;;;;;;;;;;;;;;;11.50;53.38;98315.22;4977546;28;19933;-68
2023/02/25 00:40:18;;;;;;;;;;;;;;;11.47;53.51;98310.25;4994681;28;19918;-68
2023/02/25 00:42:44;;;;;;;;;;;;;;;11.47;53.48;98323.31;4977268;28;20364;-69
2023/02/25 00:45:09;;;;;;;;;;;;;;;11.45;53.26;98312.13;4976965;28;19918;-69
2023/02/25 00:47:35;;;;;;;;;;;;;;;11.44;53.38;98300.06;4994448;28;20423;-69
2023/02/25 00:50:00;;;;;;;;;;;;;;;11.41;53.57;98299.34;4977099;28;19968;-69
2023/02/25 00:52:25;;;;;;;;;;;;;;;11.40;53.21;98294.25;4977002;28;19918;-67
2023/02/25 00:54:50;;;;;;;;;;;;;;;11.39;53.58;98293.44;4992766;28;19922;-68
2023/02/25 00:57:16;;;;;;;;;;;;;;;11.37;53.58;98292.75;4992619;28;19957;-69
2023/02/25 00:59:41;;;;;;;;;;;;;;;11.37;53.40;98284.09;4994074;28;20385;-68
2023/02/25 01:02:06;;;;;;;;;;;;;;;11.36;53.49;98287.66;4992798;28;20012;-67
2023/02/25 01:04:32;;;;;;;;;;;;;;;11.35;53.20;98280.75;4996630;28;19979;-68
2023/02/25 01:06:57;;;;;;;;;;;;;;;11.34;53.56;98274.72;4995895;28;19917;-67
2023/02/25 01:09:22;;;;;;;;;;;;;;;11.31;53.47;98280.19;4996113;28;19917;-68
2023/02/25 01:11:48;;;;;;;;;;;;;;;11.29;53.54;98271.69;5013726;28;19940;-67
2023/02/25 01:14:14;;;;;;;;;;;;;;;11.27;53.53;98275.38;5013592;28;19917;-67
2023/02/25 01:16:39;;;;;;;;;;;;;;;11.27;53.37;98275.38;4996159;28;20012;-67
2023/02/25 01:19:06;;;;;;;;;;;;;;;11.28;53.41;98274.44;4996017;28;20532;-67
2023/02/25 01:21:33;;;;;;;;;;;;;;;11.25;53.23;98272.06;4979847;28;19922;-67
2023/02/25 01:24:02;;;;;;;;;;;;;;;11.22;53.52;98273.16;5013520;28;19917;-67
2023/02/25 01:26:28;;;;;;;;;;;;;;;11.19;53.43;98271.63;4995452;28;19940;-67
2023/02/25 01:28:54;;;;;;;;;;;;;;;11.17;53.50;98270.94;4996087;28;20479;-67
2023/02/25 01:31:30;;;;;;;;;;;;;;;11.15;53.31;98259.00;4996035;28;19941;-67
2023/02/25 01:33:58;;;;;;;;;;;;;;;11.14;53.59;98265.97;4997452;28;19961;-67
2023/02/25 01:36:24;;;;;;;;;;;;;;;11.13;53.29;98261.72;4979515;28;19960;-67
2023/02/25 01:38:49;;;;;;;;;;;;;;;11.13;53.49;98263.50;4995545;28;19968;-67
2023/02/25 01:41:15;;;;;;;;;;;;;;;11.11;53.43;98258.41;4995611;28;19924;-67
2023/02/25 01:43:40;;;;;;;;;;;;;;;11.10;53.56;98259.38;4995702;28;19921;-68
2023/02/25 01:46:05;;;;;;;;;;;;;;;11.08;53.63;98255.25;4995817;28;20000;-68
2023/02/25 01:48:31;;;;;;;;;;;;;;;11.08;53.29;98253.44;4995591;28;19957;-67
2023/02/25 01:50:58;;;;;;;;;;;;;;;11.05;53.37;98251.09;4995609;28;20451;-68
2023/02/25 01:53:25;;;;;;;;;;;;;;;11.03;53.68;98250.41;4979260;28;19921;-68
2023/02/25 01:55:51;;;;;;;;;;;;;;;11.02;53.74;98248.75;4995681;28;19922;-67
2023/02/25 01:58:16;;;;;;;;;;;;;;;11.00;53.46;98248.06;4995196;28;20327;-66
2023/02/25 02:00:41;;;;;;;;;;;;;;;10.99;53.61;98244.63;4978771;28;19926;-66
2023/02/25 02:03:14;;;;;;;;;;;;;;;10.99;53.49;98243.78;4979038;28;19960;-66
2023/02/25 02:05:44;;;;;;;;;;;;;;;10.97;53.53;98245.72;4996477;28;19924;-66
2023/02/25 02:08:09;;;;;;;;;;;;;;;10.94;53.44;98252.03;5012851;28;19922;-66
2023/02/25 02:10:34;;;;;;;;;;;;;;;10.93;53.57;98249.56;4995779;28;19917;-65
2023/02/25 02:13:00;;;;;;;;;;;;;;;10.91;53.66;98246.22;4979115;28;20323;-67
2023/02/25 02:15:25;;;;;;;;;;;;;;;10.89;53.38;98243.75;4994295;28;19918;-68
2023/02/25 02:17:53;;;;;;;;;;;;;;;10.88;53.70;98241.25;4978964;28;20024;-68
2023/02/25 02:20:23;;;;;;;;;;;;;;;10.86;53.52;98244.84;4995198;28;19952;-68
2023/02/25 02:23:03;;;;;;;;;;;;;;;10.85;53.58;98237.16;4995263;28;19918;-68
2023/02/25 02:25:52;;;;;;;;;;;;;;;10.85;53.84;98242.38;5012971;28;19917;-68
2023/02/25 02:28:23;;;;;;;;;;;;;;;10.83;53.61;98242.50;4971896;28;19919;-69
2023/02/25 02:31:06;;;;;;;;;;;;;;;10.81;53.59;98241.78;4971648;28;20012;-69
2023/02/25 02:33:43;;;;;;;;;;;;;;;10.80;53.45;98242.75;4955707;28;19989;-69
2023/02/25 02:36:34;;;;;;;;;;;;;;;10.78;53.70;98236.81;4955433;28;20360;-69
2023/02/25 02:39:18;;;;;;;;;;;;;;;10.76;53.77;98235.31;4967597;28;19925;-68
2023/02/25 02:41:48;;;;;;;;;;;;;;;10.73;53.63;98239.00;4971533;28;19980;-69
2023/02/25 02:44:19;;;;;;;;;;;;;;;10.72;53.74;98237.38;4939147;28;20435;-69
2023/02/25 02:46:44;;;;;;;;;;;;;;;10.72;53.79;98244.34;4955340;28;19918;-69
2023/02/25 02:49:27;;;;;;;;;;;;;;;10.69;53.52;98245.47;4955264;28;20392;-69
2023/02/25 02:52:00;;;;;;;;;;;;;;;10.67;53.43;98250.81;4973686;28;19991;-69
2023/02/25 02:54:30;;;;;;;;;;;;;;;10.66;53.64;98243.13;4958838;28;19922;-69
2023/02/25 02:56:56;;;;;;;;;;;;;;;10.64;53.55;98243.25;4975060;28;20312;-68
2023/02/25 02:59:41;;;;;;;;;;;;;;;10.62;53.44;98239.09;4958959;28;19922;-68
2023/02/25 03:02:11;;;;;;;;;;;;;;;10.60;53.65;98233.19;4957696;28;19922;-68
2023/02/25 03:04:37;;;;;;;;;;;;;;;10.59;53.78;98234.13;4967758;28;19929;-69
2023/02/25 03:07:03;;;;;;;;;;;;;;;10.59;53.62;98226.31;4982149;28;19917;-69
2023/02/25 03:09:35;;;;;;;;;;;;;;;10.56;53.46;98222.16;4982156;28;19975;-69
2023/02/25 03:12:00;;;;;;;;;;;;;;;10.57;53.46;98223.00;4998492;28;19924;-69
2023/02/25 03:14:26;;;;;;;;;;;;;;;10.56;53.67;98227.38;4998581;28;19917;-69
2023/02/25 03:17:01;;;;;;;;;;;;;;;10.54;53.44;98226.69;4998283;28;19917;-68
2023/02/25 03:19:46;;;;;;;;;;;;;;;10.54;53.58;98233.69;5015801;28;19917;-68
2023/02/25 03:22:12;;;;;;;;;;;;;;;10.52;53.66;98239.03;5015118;28;19971;-67
2023/02/25 03:24:56;;;;;;;;;;;;;;;10.52;53.72;98233.00;4981893;28;19956;-67
2023/02/25 03:27:23;;;;;;;;;;;;;;;10.50;53.70;98230.53;5015463;28;19921;-68
2023/02/25 03:29:48;;;;;;;;;;;;;;;10.49;53.60;98236.69;4998520;28;19918;-67
2023/02/25 03:32:14;;;;;;;;;;;;;;;10.48;53.65;98241.09;4998022;28;19949;-67
2023/02/25 03:34:41;;;;;;;;;;;;;;;10.46;53.59;98232.53;4998151;28;19917;-67
2023/02/25 03:37:13;;;;;;;;;;;;;;;10.46;53.55;98231.72;4998005;28;20396;-67
2023/02/25 03:39:39;;;;;;;;;;;;;;;10.46;53.72;98226.50;4997969;28;19921;-67
2023/02/25 03:42:05;;;;;;;;;;;;;;;10.44;53.60;98212.78;4997585;28;19924;-67
2023/02/25 03:44:30;;;;;;;;;;;;;;;10.44;53.68;98218.81;4997978;28;20344;-68
2023/02/25 03:46:56;;;;;;;;;;;;;;;10.44;53.85;98218.00;4997809;28;19918;-68
2023/02/25 03:49:29;;;;;;;;;;;;;;;10.43;53.66;98218.94;5015241;28;20362;-67
2023/02/25 03:51:54;;;;;;;;;;;;;;;10.43;53.66;98211.09;4997762;28;20012;-68
2023/02/25 03:54:20;;;;;;;;;;;;;;;10.43;53.66;98217.16;4997922;28;20364;-67
2023/02/25 03:56:46;;;;;;;;;;;;;;;10.42;53.81;98217.28;4997813;28;19929;-68
2023/02/25 03:59:11;;;;;;;;;;;;;;;10.42;53.84;98217.28;5015203;28;20400;-67
2023/02/25 04:01:37;;;;;;;;;;;;;;;10.41;53.85;98215.63;5014825;28;19921;-68
2023/02/25 04:04:02;;;;;;;;;;;;;;;10.39;53.90;98209.69;5013818;28;19926;-68
2023/02/25 04:06:28;;;;;;;;;;;;;;;10.38;53.87;98208.06;4997286;28;19917;-67
2023/02/25 04:08:53;;;;;;;;;;;;;;;10.37;53.97;98203.78;5014857;28;20412;-67
2023/02/25 04:11:18;;;;;;;;;;;;;;;10.37;53.99;98212.44;4997231;28;19917;-67
2023/02/25 04:13:43;;;;;;;;;;;;;;;10.37;53.91;98203.78;4996691;28;19992;-67
2023/02/25 04:16:09;;;;;;;;;;;;;;;10.37;54.09;98194.19;5014716;28;19949;-67
2023/02/25 04:18:34;;;;;;;;;;;;;;;10.39;53.87;98192.28;4997285;28;19918;-68
2023/02/25 04:20:59;;;;;;;;;;;;;;;10.37;54.03;98185.53;4997201;28;20008;-67
2023/02/25 04:23:25;;;;;;;;;;;;;;;10.36;54.02;98189.94;4980511;28;19918;-67
2023/02/25 04:25:50;;;;;;;;;;;;;;;10.32;54.01;98189.34;5014568;28;19941;-67
2023/02/25 04:28:15;;;;;;;;;;;;;;;10.31;54.04;98187.69;5014502;28;19918;-67
2023/02/25 04:30:41;;;;;;;;;;;;;;;10.30;54.00;98187.81;4996682;28;19921;-67
2023/02/25 04:33:06;;;;;;;;;;;;;;;10.29;53.84;98188.75;4980448;28;19918;-67
2023/02/25 04:35:31;;;;;;;;;;;;;;;10.27;53.98;98188.88;5014218;28;19924;-68
2023/02/25 04:37:56;;;;;;;;;;;;;;;10.27;53.71;98191.50;5014519;28;20380;-66
2023/02/25 04:40:22;;;;;;;;;;;;;;;10.27;53.84;98191.50;5014219;28;19918;-68
2023/02/25 04:42:48;;;;;;;;;;;;;;;10.27;53.83;98188.06;4981208;28;20019;-68
2023/02/25 04:45:13;;;;;;;;;;;;;;;10.26;53.98;98194.22;4996155;28;19917;-69
2023/02/25 04:47:39;;;;;;;;;;;;;;;10.23;53.86;98190.09;4980765;28;20392;-68
2023/02/25 04:50:04;;;;;;;;;;;;;;;10.23;53.87;98186.66;4996491;28;20056;-69
2023/02/25 04:52:30;;;;;;;;;;;;;;;10.23;53.92;98190.09;4996880;28;19918;-69
2023/02/25 04:54:55;;;;;;;;;;;;;;;10.22;54.02;98193.66;4996524;28;19917;-69
2023/02/25 04:57:20;;;;;;;;;;;;;;;10.20;53.86;98195.59;4996789;28;20369;-69
2023/02/25 04:59:46;;;;;;;;;;;;;;;10.22;53.88;98200.66;4970680;28;19922;-69
2023/02/25 05:02:11;;;;;;;;;;;;;;;10.20;53.74;98200.78;4976507;28;19964;-68
2023/02/25 05:04:36;;;;;;;;;;;;;;;10.20;53.76;98192.13;4960802;28;20282;-68
2023/02/25 05:07:02;;;;;;;;;;;;;;;10.20;53.46;98184.31;4976846;28;19918;-69
2023/02/25 05:09:27;;;;;;;;;;;;;;;10.19;53.45;98201.75;4960555;28;20384;-68
2023/02/25 05:11:52;;;;;;;;;;;;;;;10.19;53.37;98193.91;4977254;28;19921;-68
2023/02/25 05:14:17;;;;;;;;;;;;;;;10.20;53.36;98197.34;4976281;28;19917;-68
2023/02/25 05:16:43;;;;;;;;;;;;;;;10.23;53.22;98195.31;4994052;28;19925;-68
2023/02/25 05:19:08;;;;;;;;;;;;;;;10.31;52.66;98199.91;4976704;28;20392;-69
2023/02/25 05:21:33;;;;;;;;;;;;;;;10.43;52.72;98208.50;4976663;28;20024;-68
2023/02/25 05:23:59;;;;;;;;;;;;;;;10.56;52.38;98205.69;4993658;28;20004;-69
2023/02/25 05:26:24;;;;;;;;;;;;;;;10.73;52.15;98209.47;4976661;28;20352;-69
2023/02/25 05:28:50;;;;;;;;;;;;;;;10.88;52.00;98205.56;4960068;28;19918;-68
2023/02/25 05:31:15;;;;;;;;;;;;;;;11.04;51.69;98205.06;4990121;28;20453;-69
2023/02/25 05:33:40;;;;;;;;;;;;;;;11.21;51.30;98195.72;4965807;28;20076;-72
2023/02/25 05:36:06;;;;;;;;;;;;;;;11.44;50.88;98198.13;4948954;28;19918;-74
2023/02/25 05:38:32;;;;;;;;;;;;;;;11.70;50.08;98208.88;4948193;28;20389;-72
2023/02/25 05:40:58;;;;;;;;;;;;;;;11.97;49.79;98200.38;4949864;28;19925;-73
2023/02/25 05:43:24;;;;;;;;;;;;;;;12.27;49.41;98195.91;4964837;28;19985;-74
2023/02/25 05:45:53;;;;;;;;;;;;;;;12.60;48.81;98196.38;4981790;28;20352;-75
2023/02/25 05:48:18;;;;;;;;;;;;;;;13.15;63.36;98206.88;4987276;28;20012;-85
2023/02/25 05:50:43;;;;;;;;;;;;;;;13.89;64.20;98197.16;4968289;28;19969;-74
2023/02/25 05:53:09;;;;;;;;;;;;;;;14.29;53.96;98187.09;4982404;28;20452;-74
2023/02/25 05:55:34;;;;;;;;;;;;;;;14.59;51.61;98195.50;4980106;28;19922;-74
2023/02/25 05:57:59;;;;;;;;;;;;;;;14.93;50.02;98189.47;4957645;28;20392;-74
2023/02/25 06:00:25;;;;;;;;;;;;;;;15.34;48.37;98189.59;4981810;28;19949;-74
2023/02/25 06:02:50;;;;;;;;;;;;;;;15.74;47.61;98191.44;4964001;28;20396;-73
2023/02/25 06:05:16;;;;;;;;;;;;;;;16.12;46.85;98180.47;4983353;28;19924;-72
2023/02/25 06:07:41;;;;;;;;;;;;;;;16.51;45.88;98189.44;4964002;28;19953;-72
2023/02/25 06:10:07;;;;;;;;;;;;;;;16.87;45.45;98191.66;4964354;28;19988;-74
2023/02/25 06:12:32;;;;;;;;;;;;;;;17.22;44.85;98192.16;4983023;28;19918;-76
2023/02/25 06:14:58;;;;;;;;;;;;;;;17.49;44.09;98194.34;4963594;28;19918;-76
2023/02/25 06:17:23;;;;;;;;;;;;;;;17.89;52.48;98200.34;4982351;28;19925;-74
2023/02/25 06:19:50;;;;;;;;;;;;;;;18.23;48.77;98203.53;4949067;28;19926;-74
2023/02/25 06:22:15;;;;;;;;;;;;;;;18.63;45.32;98197.03;4963959;28;19930;-79
2023/02/25 06:24:41;;;;;;;;;;;;;;;19.13;45.50;98196.47;4949893;28;19925;-73
2023/02/25 06:27:06;;;;;;;;;;;;;;;19.70;49.69;98200.13;4967576;28;20304;-73
2023/02/25 06:29:31;;;;;;;;;;;;;;;20.30;47.21;98198.03;4953208;28;19980;-74
2023/02/25 06:31:56;;;;;;;;;;;;;;;20.61;44.20;98196.81;4968815;28;19926;-75
2023/02/25 06:34:22;;;;;;;;;;;;;;;20.43;40.50;98192.03;4970331;28;19918;-74
2023/02/25 06:36:47;;;;;;;;;;;;;;;20.34;39.46;98196.66;4950255;28;20400;-73
2023/02/25 06:39:12;;;;;;;;;;;;;;;20.29;39.09;98191.09;4952262;28;19962;-75
2023/02/25 06:41:38;;;;;;;;;;;;;;;20.54;43.96;98198.59;4967290;28;19932;-75
2023/02/25 06:44:05;;;;;;;;;;;;;;;20.71;38.92;98199.16;4987034;28;19918;-74
2023/02/25 06:46:30;;;;;;;;;;;;;;;20.78;39.03;98200.03;4985609;28;19965;-76
2023/02/25 06:48:56;;;;;;;;;;;;;;;21.01;41.30;98190.94;4951149;28;19965;-76
2023/02/25 06:51:21;;;;;;;;;;;;;;;21.27;38.10;98198.19;4953665;28;19976;-73
2023/02/25 06:53:46;;;;;;;;;;;;;;;21.63;38.12;98202.38;4979468;28;19918;-76
2023/02/25 06:56:12;;;;;;;;;;;;;;;22.07;36.46;98200.19;4979308;28;19984;-75
2023/02/25 06:58:37;;;;;;;;;;;;;;;22.25;35.36;98203.06;4996688;28;20377;-76
2023/02/25 07:01:06;;;;;;;;;;;;;;;22.66;34.46;98201.19;4996704;28;19922;-80
2023/02/25 07:03:32;;;;;;;;;;;;;;;22.93;35.94;98200.09;4962821;28;19936;-79
2023/02/25 07:05:57;;;;;;;;;;;;;;;23.40;34.08;98194.56;4979055;28;20289;-79
2023/02/25 07:08:22;;;;;;;;;;;;;;;24.28;32.98;98194.84;4985865;28;19973;-81
2023/02/25 07:10:48;;;;;;;;;;;;;;;25.02;30.85;98198.41;4978348;28;20365;-77
2023/02/25 07:13:13;;;;;;;;;;;;;;;26.17;31.68;98193.94;4999178;28;20489;-75
2023/02/25 07:15:38;;;;;;;;;;;;;;;27.35;30.88;98181.47;4978363;28;19917;-75
2023/02/25 07:18:04;;;;;;;;;;;;;;;28.42;30.02;98176.28;4978869;28;19937;-80
2023/02/25 07:20:29;;;;;;;;;;;;;;;29.02;29.00;98166.59;4979065;28;20324;-78
2023/02/25 07:22:54;;;;;;;;;;;;;;;29.23;28.15;98167.66;4975566;28;19922;-78
2023/02/25 07:25:20;;;;;;;;;;;;;;;28.99;27.29;98175.16;4982294;28;19981;-77
2023/02/25 07:27:45;;;;;;;;;;;;;;;28.73;26.79;98174.03;4967191;28;19918;-75
2023/02/25 07:30:11;;;;;;;;;;;;;;;28.90;26.89;98180.16;4968348;28;20412;-75
2023/02/25 07:32:37;;;;;;;;;;;;;;;28.75;27.57;98179.94;4984230;28;19918;-78
2023/02/25 07:35:03;;;;;;;;;;;;;;;28.88;27.28;98190.34;4967327;28;19918;-79
2023/02/25 07:37:29;;;;;;;;;;;;;;;28.64;27.15;98179.81;4967588;28;20012;-77
2023/02/25 07:39:56;;;;;;;;;;;;;;;28.18;27.92;98175.63;4983585;28;20016;-76
2023/02/25 07:42:22;;;;;;;;;;;;;;;27.82;29.27;98177.72;4985696;28;19922;-75
2023/02/25 07:44:47;;;;;;;;;;;;;;;27.89;28.38;98184.53;4985286;28;20439;-76
2023/02/25 07:47:12;;;;;;;;;;;;;;;27.77;27.91;98176.59;4983198;28;19925;-75
2023/02/25 07:49:38;;;;;;;;;;;;;;;27.59;28.21;98166.88;4967928;28;20013;-75
2023/02/25 07:52:03;;;;;;;;;;;;;;;27.40;28.84;98155.56;4984364;28;20357;-73
2023/02/25 07:54:28;;;;;;;;;;;;;;;26.94;29.98;98157.34;4983997;28;19925;-76
2023/02/25 07:56:53;;;;;;;;;;;;;;;26.87;33.16;98159.38;4968398;28;19918;-84
2023/02/25 07:59:19;;;;;;;;;;;;;;;26.50;34.45;98155.09;4963329;28;19919;-78
2023/02/25 08:01:44;;;;;;;;;;;;;;;26.23;35.00;98156.59;4976025;28;19926;-76
2023/02/25 08:04:10;;;;;;;;;;;;;;;26.00;34.88;98151.03;4976069;28;19926;-75
2023/02/25 08:06:36;;;;;;;;;;;;;;;26.05;33.87;98144.97;4958455;28;20065;-77
2023/02/25 08:09:04;;;;;;;;;;;;;;;25.91;35.50;98146.22;4943252;28;19925;-80
2023/02/25 08:11:29;;;;;;;;;;;;;;;25.86;36.43;98149.59;4974343;28;19918;-75
2023/02/25 08:13:55;;;;;;;;;;;;;;;25.63;35.52;98139.66;4997886;28;19923;-74
2023/02/25 08:16:20;;;;;;;;;;;;;;;25.31;35.25;98136.44;4997375;28;20023;-76
2023/02/25 08:18:46;;;;;;;;;;;;;;;24.88;35.88;98135.53;4980419;28;19917;-78
2023/02/25 08:21:12;;;;;;;;;;;;;;;24.59;35.91;98139.75;4997041;28;19929;-77
2023/02/25 08:23:37;;;;;;;;;;;;;;;24.34;36.33;98129.94;4980432;28;19925;-80
2023/02/25 08:26:02;;;;;;;;;;;;;;;24.05;37.04;98132.25;5014654;28;19917;-74
2023/02/25 08:28:30;;;;;;;;;;;;;;;23.90;43.81;98135.25;5014861;28;20024;-75
2023/02/25 08:30:55;;;;;;;;;;;;;;;23.69;39.63;98123.09;4996594;28;19917;-74
2023/02/25 08:33:20;;;;;;;;;;;;;;;23.48;38.82;98113.59;4980815;28;19921;-76
2023/02/25 08:35:46;;;;;;;;;;;;;;;23.24;38.56;98112.53;4996960;28;20277;-81
2023/02/25 08:38:11;;;;;;;;;;;;;;;23.06;41.74;98110.56;4980507;28;19957;-76
2023/02/25 08:40:40;;;;;;;;;;;;;;;22.84;40.35;98110.88;4997678;28;19917;-78
2023/02/25 08:43:05;;;;;;;;;;;;;;;22.61;39.93;98095.41;4996912;28;19918;-83
2023/02/25 08:45:31;;;;;;;;;;;;;;;22.44;40.51;98091.56;4990070;28;19983;-78
2023/02/25 08:47:56;;;;;;;;;;;;;;;22.32;40.28;98099.41;4980701;28;20305;-76
2023/02/25 08:50:22;;;;;;;;;;;;;;;22.21;40.97;98096.31;4961817;28;20005;-76
2023/02/25 08:52:48;;;;;;;;;;;;;;;22.29;40.33;98078.50;4964669;28;19925;-76
2023/02/25 08:55:13;;;;;;;;;;;;;;;22.42;38.87;98089.13;4982502;28;19926;-83
2023/02/25 08:57:39;;;;;;;;;;;;;;;22.74;38.19;98095.38;4966864;28;19925;-76
2023/02/25 09:00:05;;;;;;;;;;;;;;;22.69;37.43;98097.84;4949516;28;19918;-75
2023/02/25 09:02:31;;;;;;;;;;;;;;;22.60;37.02;98088.47;4948174;28;20357;-76
2023/02/25 09:04:56;;;;;;;;;;;;;;;22.56;36.77;98084.59;4966469;28;19928;-84
2023/02/25 09:07:22;;;;;;;;;;;;;;;23.00;40.12;98082.94;4965068;28;19928;-76
2023/02/25 09:09:47;;;;;;;;;;;;;;;24.20;38.39;98087.41;4983338;28;20326;-73
2023/02/25 09:12:13;;;;;;;;;;;;;;;25.77;33.94;98084.13;4965436;28;19925;-78
2023/02/25 09:14:38;;;;;;;;;;;;;;;26.79;31.12;98087.41;4981003;28;19918;-75
2023/02/25 09:17:03;;;;;;;;;;;;;;;26.82;31.94;98077.06;4964665;28;19914;-82
2023/02/25 09:19:29;;;;;;;;;;;;;;;26.67;29.66;98069.53;4948298;28;19924;-79
2023/02/25 09:21:54;;;;;;;;;;;;;;;26.70;28.45;98063.72;4966488;28;19929;-77
2023/02/25 09:24:19;;;;;;;;;;;;;;;27.24;26.64;98063.34;4982097;28;19962;-77
2023/02/25 09:26:45;;;;;;;;;;;;;;;27.31;24.73;98055.22;4982621;28;20441;-78
2023/02/25 09:29:10;;;;;;;;;;;;;;;27.05;24.81;98060.06;4950708;28;19928;-79
2023/02/25 09:31:36;;;;;;;;;;;;;;;27.23;24.58;98055.56;4969363;28;20321;-78
2023/02/25 09:34:03;;;;;;;;;;;;;;;26.98;24.62;98051.38;4966623;28;19961;-81
2023/02/25 09:36:28;;;;;;;;;;;;;;;27.34;24.32;98046.69;4949685;28;19925;-76
2023/02/25 09:38:55;;;;;;;;;;;;;;;27.64;24.00;98047.41;4948008;28;19926;-77
2023/02/25 09:41:20;;;;;;;;;;;;;;;27.79;23.56;98045.75;4983568;28;19925;-75
2023/02/25 09:43:46;;;;;;;;;;;;;;;27.81;24.58;98045.50;4965236;28;20324;-76
2023/02/25 09:46:13;;;;;;;;;;;;;;;27.59;24.27;98038.22;4962650;28;20423;-78
2023/02/25 09:48:50;;;;;;;;;;;;;;;27.12;24.24;98024.28;4959557;28;20034;-77
2023/02/25 09:51:20;;;;;;;;;;;;;;;26.93;26.91;98018.34;4966461;28;19962;-84
2023/02/25 09:53:47;;;;;;;;;;;;;;;26.60;28.78;98017.16;4949342;28;20356;-77
2023/02/25 09:56:12;;;;;;;;;;;;;;;26.18;27.05;98012.88;4982762;28;19926;-77
2023/02/25 09:58:39;;;;;;;;;;;;;;;26.38;29.71;98014.31;4956931;28;20013;-75
2023/02/25 10:01:11;;;;;;;;;;;;;;;26.58;26.36;98012.03;4956247;28;19959;-75
2023/02/25 10:03:39;;;;;;;;;;;;;;;26.64;25.57;98008.41;4974084;28;19926;-73
2023/02/25 10:06:04;;;;;;;;;;;;;;;26.45;25.19;98001.63;4973625;28;19918;-73
2023/02/25 10:08:45;;;;;;;;;;;;;;;26.22;25.20;98005.19;4974287;28;20290;-73
2023/02/25 10:11:12;;;;;;;;;;;;;;;26.26;25.18;97995.66;4940466;28;19918;-74
2023/02/25 10:13:53;;;;;;;;;;;;;;;26.51;33.23;97995.34;4956819;28;19925;-75
2023/02/25 10:16:36;;;;;;;;;;;;;;;26.69;29.73;97970.25;4973866;28;20374;-75
2023/02/25 10:19:07;;;;;;;;;;;;;;;26.64;28.07;97968.28;4974542;28;19922;-75
2023/02/25 10:21:41;;;;;;;;;;;;;;;26.86;25.96;97971.09;4956727;28;20308;-76
2023/02/25 10:24:36;;;;;;;;;;;;;;;26.90;25.99;97971.44;4980376;28;19936;-77
2023/02/25 10:27:06;;;;;;;;;;;;;;;26.88;25.44;97960.16;4974654;28;19923;-78
2023/02/25 10:29:37;;;;;;;;;;;;;;;26.83;24.38;97955.50;4965699;28;19968;-78
2023/02/25 10:32:11;;;;;;;;;;;;;;;26.79;30.03;97953.56;4965583;28;19918;-79
2023/02/25 10:34:37;;;;;;;;;;;;;;;26.76;28.86;97949.53;4964374;28;19918;-77
2023/02/25 10:37:03;;;;;;;;;;;;;;;26.88;27.27;97944.91;4964862;28;19971;-80
2023/02/25 10:39:30;;;;;;;;;;;;;;;26.76;27.64;97941.50;4965465;28;20368;-76
2023/02/25 10:41:55;;;;;;;;;;;;;;;26.67;27.77;97932.22;4964792;28;20017;-76
2023/02/25 10:44:20;;;;;;;;;;;;;;;26.52;26.65;97930.88;4940534;28;20009;-76
2023/02/25 10:46:48;;;;;;;;;;;;;;;26.33;27.92;97924.91;4940092;28;19941;-75
2023/02/25 10:49:15;;;;;;;;;;;;;;;26.21;27.73;97904.59;4954598;28;19941;-76
2023/02/25 10:51:55;;;;;;;;;;;;;;;26.06;28.97;97899.75;4955084;28;19918;-76
2023/02/25 10:54:21;;;;;;;;;;;;;;;25.86;29.08;97894.81;4956066;28;19922;-77
2023/02/25 10:56:48;;;;;;;;;;;;;;;25.83;29.39;97888.88;4943288;28;20401;-74
2023/02/25 10:59:19;;;;;;;;;;;;;;;25.74;30.71;97878.78;4982831;28;19922;-76
2023/02/25 11:01:46;;;;;;;;;;;;;;;25.62;31.55;97881.50;4961965;28;19926;-75
2023/02/25 11:04:17;;;;;;;;;;;;;;;25.56;31.64;97863.72;4959279;28;19926;-76
2023/02/25 11:06:42;;;;;;;;;;;;;;;25.41;30.94;97859.69;4975413;28;19995;-74
2023/02/25 11:09:20;;;;;;;;;;;;;;;25.22;31.40;97863.50;4975501;28;20400;-76
2023/02/25 11:11:57;;;;;;;;;;;;;;;25.03;33.66;97857.47;4993159;28;19929;-75
2023/02/25 11:14:31;;;;;;;;;;;;;;;24.69;33.48;97855.34;4996108;28;19925;-72
2023/02/25 11:17:13;;;;;;;;;;;;;;;24.41;34.65;97866.63;4979934;28;20360;-76
2023/02/25 11:19:39;;;;;;;;;;;;;;;24.11;33.28;97866.63;4979326;28;19917;-73
2023/02/25 11:22:09;;;;;;;;;;;;;;;23.94;32.68;97866.44;4978850;28;19918;-78
2023/02/25 11:24:37;;;;;;;;;;;;;;;23.86;33.80;97858.75;4978347;28;19918;-76
2023/02/25 11:27:03;;;;;;;;;;;;;;;23.74;34.81;97864.81;4978664;28;19918;-76
2023/02/25 11:29:38;;;;;;;;;;;;;;;23.62;35.35;97866.59;4979012;28;19918;-77
2023/02/25 11:32:11;;;;;;;;;;;;;;;23.47;35.72;97862.44;4978909;28;20001;-72
2023/02/25 11:34:46;;;;;;;;;;;;;;;23.54;34.81;97851.72;4995946;28;19918;-73
2023/02/25 11:37:21;;;;;;;;;;;;;;;23.47;33.77;97845.66;4979142;28;19931;-75
2023/02/25 11:39:53;;;;;;;;;;;;;;;23.56;33.05;97838.16;4978589;28;20397;-73
2023/02/25 11:42:25;;;;;;;;;;;;;;;23.65;32.03;97826.19;4978322;28;19972;-70
2023/02/25 11:44:57;;;;;;;;;;;;;;;23.66;32.30;97814.50;4994177;28;19924;-71
2023/02/25 11:47:23;;;;;;;;;;;;;;;23.71;31.99;97819.16;4995834;28;19922;-72
2023/02/25 11:49:55;;;;;;;;;;;;;;;23.69;32.27;97818.53;4996251;28;19961;-73
2023/02/25 11:52:32;;;;;;;;;;;;;;;23.57;31.26;97827.28;4995553;28;20310;-72
2023/02/25 11:55:03;;;;;;;;;;;;;;;23.52;30.83;97816.50;4995700;28;19940;-71
2023/02/25 11:57:33;;;;;;;;;;;;;;;23.57;30.82;97816.63;4995638;28;19925;-71
2023/02/25 12:00:04;;;;;;;;;;;;;;;23.54;32.09;97814.41;4977932;28;19922;-71
2023/02/25 12:02:48;;;;;;;;;;;;;;;23.53;32.07;97811.97;4995659;28;20015;-73
2023/02/25 12:05:25;;;;;;;;;;;;;;;23.55;31.47;97810.72;4995611;28;20072;-72
2023/02/25 12:07:52;;;;;;;;;;;;;;;23.57;31.58;97797.19;4977831;28;19914;-72
2023/02/25 12:10:23;;;;;;;;;;;;;;;23.50;31.87;97797.28;4995263;28;20372;-72
2023/02/25 12:12:49;;;;;;;;;;;;;;;23.49;31.62;97784.97;4995586;28;19914;-72
2023/02/25 12:15:22;;;;;;;;;;;;;;;23.43;31.75;97780.56;4995295;28;20304;-73
2023/02/25 12:17:57;;;;;;;;;;;;;;;23.35;32.66;97783.53;4962308;28;20413;-72
2023/02/25 12:20:25;;;;;;;;;;;;;;;23.23;32.29;97770.97;4977692;28;19921;-73
2023/02/25 12:23:20;;;;;;;;;;;;;;;23.16;32.44;97772.06;4977288;28;19925;-74
2023/02/25 12:25:51;;;;;;;;;;;;;;;23.18;33.03;97762.00;4960654;28;20080;-72
2023/02/25 12:28:39;;;;;;;;;;;;;;;23.06;33.43;97762.72;4977543;28;20301;-72
2023/02/25 12:31:08;;;;;;;;;;;;;;;22.94;33.38;97757.31;4977512;28;19918;-71
2023/02/25 12:33:47;;;;;;;;;;;;;;;22.89;33.65;97759.81;4961432;28;20432;-76
2023/02/25 12:36:32;;;;;;;;;;;;;;;22.83;34.11;97766.00;4977408;28;19956;-73
2023/02/25 12:39:13;;;;;;;;;;;;;;;22.83;34.05;97760.69;4993823;28;19976;-74
2023/02/25 12:41:47;;;;;;;;;;;;;;;22.80;34.06;97761.13;4994760;28;19918;-73
2023/02/25 12:44:31;;;;;;;;;;;;;;;22.80;34.50;97755.00;4994663;28;19922;-73
2023/02/25 12:47:00;;;;;;;;;;;;;;;22.74;34.87;97752.19;4994593;28;20002;-73
2023/02/25 12:49:41;;;;;;;;;;;;;;;22.64;35.15;97751.06;4977106;28;20373;-73
2023/02/25 12:52:12;;;;;;;;;;;;;;;22.61;35.14;97751.50;4994379;28;19924;-71